sensor_id;sensor_type;location;lat;lon;timestamp;P1;durP1;ratioP1;P2;durP2;ratioP2
50789;SDS011;37287;47.554;7.844;2023-04-19T00:01:40;5.85;;;4.72;;
50789;SDS011;37287;47.554;7.844;2023-04-19T00:04:07;4.93;;;4.43;;
50789;SDS011;37287;47.554;7.844;2023-04-19T00:06:36;5.20;;;4.30;;
50789;SDS011;37287;47.554;7.844;2023-04-19T00:09:03;6.07;;;4.38;;
50789;SDS011;37287;47.554;7.844;2023-04-19T00:11:29;4.35;;;3.95;;
50789;SDS011;37287;47.554;7.844;2023-04-19T00:13:58;6.30;;;4.05;;
50789;SDS011;37287;47.554;7.844;2023-04-19T00:16:25;4.45;;;4.05;;
50789;SDS011;37287;47.554;7.844;2023-04-19T00:18:51;4.65;;;4.13;;
50789;SDS011;37287;47.554;7.844;2023-04-19T00:21:19;4.75;;;4.25;;
50789;SDS011;37287;47.554;7.844;2023-04-19T00:23:46;5.60;;;3.97;;
50789;SDS011;37287;47.554;7.844;2023-04-19T00:26:14;5.63;;;4.50;;
50789;SDS011;37287;47.554;7.844;2023-04-19T00:28:41;5.93;;;4.70;;
50789;SDS011;37287;47.554;7.844;2023-04-19T00:31:08;5.00;;;4.40;;
50789;SDS011;37287;47.554;7.844;2023-04-19T00:33:37;4.90;;;4.30;;
50789;SDS011;37287;47.554;7.844;2023-04-19T00:36:03;5.72;;;4.30;;
50789;SDS011;37287;47.554;7.844;2023-04-19T00:38:30;4.53;;;4.07;;
50789;SDS011;37287;47.554;7.844;2023-04-19T00:40:57;4.80;;;4.30;;
50789;SDS011;37287;47.554;7.844;2023-04-19T00:43:25;4.82;;;4.07;;
50789;SDS011;37287;47.554;7.844;2023-04-19T00:45:52;5.80;;;4.45;;
50789;SDS011;37287;47.554;7.844;2023-04-19T00:48:19;4.00;;;3.60;;
50789;SDS011;37287;47.554;7.844;2023-04-19T00:50:47;5.55;;;4.60;;
50789;SDS011;37287;47.554;7.844;2023-04-19T00:53:14;5.13;;;4.57;;
50789;SDS011;37287;47.554;7.844;2023-04-19T00:55:41;4.75;;;4.30;;
50789;SDS011;37287;47.554;7.844;2023-04-19T00:58:08;4.90;;;4.20;;
50789;SDS011;37287;47.554;7.844;2023-04-19T01:00:35;5.90;;;4.90;;
50789;SDS011;37287;47.554;7.844;2023-04-19T01:03:02;7.72;;;4.57;;
50789;SDS011;37287;47.554;7.844;2023-04-19T01:05:33;6.43;;;4.78;;
50789;SDS011;37287;47.554;7.844;2023-04-19T01:08:00;4.65;;;4.22;;
50789;SDS011;37287;47.554;7.844;2023-04-19T01:10:27;4.35;;;3.80;;
50789;SDS011;37287;47.554;7.844;2023-04-19T01:12:55;5.38;;;4.60;;
50789;SDS011;37287;47.554;7.844;2023-04-19T01:15:21;5.20;;;4.05;;
50789;SDS011;37287;47.554;7.844;2023-04-19T01:17:48;5.07;;;4.20;;
50789;SDS011;37287;47.554;7.844;2023-04-19T01:20:17;6.82;;;4.97;;
50789;SDS011;37287;47.554;7.844;2023-04-19T01:22:46;5.65;;;4.95;;
50789;SDS011;37287;47.554;7.844;2023-04-19T01:25:12;6.68;;;4.93;;
50789;SDS011;37287;47.554;7.844;2023-04-19T01:27:40;5.28;;;4.45;;
50789;SDS011;37287;47.554;7.844;2023-04-19T01:30:07;5.15;;;3.83;;
50789;SDS011;37287;47.554;7.844;2023-04-19T01:32:36;4.88;;;4.25;;
50789;SDS011;37287;47.554;7.844;2023-04-19T01:35:03;4.47;;;3.95;;
50789;SDS011;37287;47.554;7.844;2023-04-19T01:37:30;4.38;;;3.97;;
50789;SDS011;37287;47.554;7.844;2023-04-19T01:39:59;4.97;;;4.22;;
50789;SDS011;37287;47.554;7.844;2023-04-19T01:42:27;4.90;;;4.32;;
50789;SDS011;37287;47.554;7.844;2023-04-19T01:44:57;5.03;;;3.83;;
50789;SDS011;37287;47.554;7.844;2023-04-19T01:47:23;4.20;;;3.80;;
50789;SDS011;37287;47.554;7.844;2023-04-19T01:49:52;6.68;;;4.72;;
50789;SDS011;37287;47.554;7.844;2023-04-19T01:52:18;5.85;;;4.47;;
50789;SDS011;37287;47.554;7.844;2023-04-19T01:54:45;5.35;;;4.15;;
50789;SDS011;37287;47.554;7.844;2023-04-19T01:57:18;4.60;;;3.65;;
50789;SDS011;37287;47.554;7.844;2023-04-19T01:59:45;2.97;;;2.72;;
50789;SDS011;37287;47.554;7.844;2023-04-19T02:02:11;4.75;;;3.70;;
50789;SDS011;37287;47.554;7.844;2023-04-19T02:04:47;3.85;;;3.47;;
50789;SDS011;37287;47.554;7.844;2023-04-19T02:07:14;5.13;;;4.35;;
50789;SDS011;37287;47.554;7.844;2023-04-19T02:09:40;3.42;;;3.10;;
50789;SDS011;37287;47.554;7.844;2023-04-19T02:12:07;4.45;;;3.78;;
50789;SDS011;37287;47.554;7.844;2023-04-19T02:14:34;4.00;;;3.38;;
50789;SDS011;37287;47.554;7.844;2023-04-19T02:17:01;4.43;;;4.03;;
50789;SDS011;37287;47.554;7.844;2023-04-19T02:19:29;5.82;;;5.05;;
50789;SDS011;37287;47.554;7.844;2023-04-19T02:21:56;5.35;;;4.45;;
50789;SDS011;37287;47.554;7.844;2023-04-19T02:24:23;6.03;;;4.68;;
50789;SDS011;37287;47.554;7.844;2023-04-19T02:26:51;5.88;;;4.57;;
50789;SDS011;37287;47.554;7.844;2023-04-19T02:29:18;4.63;;;4.22;;
50789;SDS011;37287;47.554;7.844;2023-04-19T02:31:45;4.85;;;4.30;;
50789;SDS011;37287;47.554;7.844;2023-04-19T02:34:11;5.53;;;4.47;;
50789;SDS011;37287;47.554;7.844;2023-04-19T02:36:38;5.15;;;4.38;;
50789;SDS011;37287;47.554;7.844;2023-04-19T02:39:05;4.10;;;3.70;;
50789;SDS011;37287;47.554;7.844;2023-04-19T02:41:34;4.55;;;3.80;;
50789;SDS011;37287;47.554;7.844;2023-04-19T02:44:00;4.45;;;4.03;;
50789;SDS011;37287;47.554;7.844;2023-04-19T02:46:27;4.05;;;3.60;;
50789;SDS011;37287;47.554;7.844;2023-04-19T02:48:54;4.38;;;3.90;;
50789;SDS011;37287;47.554;7.844;2023-04-19T02:51:21;4.13;;;3.72;;
50789;SDS011;37287;47.554;7.844;2023-04-19T02:53:52;5.82;;;4.18;;
50789;SDS011;37287;47.554;7.844;2023-04-19T02:56:20;5.72;;;4.28;;
50789;SDS011;37287;47.554;7.844;2023-04-19T02:58:47;5.30;;;4.80;;
50789;SDS011;37287;47.554;7.844;2023-04-19T03:01:13;5.68;;;4.45;;
50789;SDS011;37287;47.554;7.844;2023-04-19T03:03:42;4.85;;;4.35;;
50789;SDS011;37287;47.554;7.844;2023-04-19T03:06:11;4.80;;;4.25;;
50789;SDS011;37287;47.554;7.844;2023-04-19T03:08:37;5.45;;;3.83;;
50789;SDS011;37287;47.554;7.844;2023-04-19T03:11:04;4.88;;;4.38;;
50789;SDS011;37287;47.554;7.844;2023-04-19T03:13:30;5.25;;;4.45;;
50789;SDS011;37287;47.554;7.844;2023-04-19T03:15:57;5.10;;;4.10;;
50789;SDS011;37287;47.554;7.844;2023-04-19T03:18:30;4.22;;;3.70;;
50789;SDS011;37287;47.554;7.844;2023-04-19T03:20:56;5.07;;;4.18;;
50789;SDS011;37287;47.554;7.844;2023-04-19T03:23:24;4.75;;;4.25;;
50789;SDS011;37287;47.554;7.844;2023-04-19T03:25:52;3.88;;;3.58;;
50789;SDS011;37287;47.554;7.844;2023-04-19T03:28:18;4.63;;;4.22;;
50789;SDS011;37287;47.554;7.844;2023-04-19T03:30:45;4.30;;;3.88;;
50789;SDS011;37287;47.554;7.844;2023-04-19T03:33:13;4.20;;;3.72;;
50789;SDS011;37287;47.554;7.844;2023-04-19T03:35:40;3.80;;;3.50;;
50789;SDS011;37287;47.554;7.844;2023-04-19T03:38:06;5.05;;;3.75;;
50789;SDS011;37287;47.554;7.844;2023-04-19T03:40:36;4.38;;;3.97;;
50789;SDS011;37287;47.554;7.844;2023-04-19T03:43:03;5.60;;;4.20;;
50789;SDS011;37287;47.554;7.844;2023-04-19T03:45:30;4.82;;;4.32;;
50789;SDS011;37287;47.554;7.844;2023-04-19T03:47:56;4.78;;;4.13;;
50789;SDS011;37287;47.554;7.844;2023-04-19T03:50:26;4.68;;;4.22;;
50789;SDS011;37287;47.554;7.844;2023-04-19T03:52:52;4.95;;;3.80;;
50789;SDS011;37287;47.554;7.844;2023-04-19T03:55:20;4.82;;;4.20;;
50789;SDS011;37287;47.554;7.844;2023-04-19T03:57:47;4.25;;;3.85;;
50789;SDS011;37287;47.554;7.844;2023-04-19T04:00:13;4.88;;;3.53;;
50789;SDS011;37287;47.554;7.844;2023-04-19T04:02:42;3.63;;;3.22;;
50789;SDS011;37287;47.554;7.844;2023-04-19T04:05:09;3.63;;;3.33;;
50789;SDS011;37287;47.554;7.844;2023-04-19T04:07:36;5.65;;;3.70;;
50789;SDS011;37287;47.554;7.844;2023-04-19T04:10:03;4.55;;;3.22;;
50789;SDS011;37287;47.554;7.844;2023-04-19T04:12:32;4.25;;;3.28;;
50789;SDS011;37287;47.554;7.844;2023-04-19T04:15:00;5.18;;;3.63;;
50789;SDS011;37287;47.554;7.844;2023-04-19T04:17:28;4.60;;;3.70;;
50789;SDS011;37287;47.554;7.844;2023-04-19T04:19:55;5.10;;;4.07;;
50789;SDS011;37287;47.554;7.844;2023-04-19T04:22:21;5.90;;;4.43;;
50789;SDS011;37287;47.554;7.844;2023-04-19T04:24:50;5.00;;;4.15;;
50789;SDS011;37287;47.554;7.844;2023-04-19T04:27:19;5.82;;;4.30;;
50789;SDS011;37287;47.554;7.844;2023-04-19T04:29:46;4.90;;;4.00;;
50789;SDS011;37287;47.554;7.844;2023-04-19T04:32:16;4.53;;;4.10;;
50789;SDS011;37287;47.554;7.844;2023-04-19T04:34:48;5.43;;;4.13;;
50789;SDS011;37287;47.554;7.844;2023-04-19T04:37:17;12.90;;;4.57;;
50789;SDS011;37287;47.554;7.844;2023-04-19T04:39:45;5.30;;;4.30;;
50789;SDS011;37287;47.554;7.844;2023-04-19T04:42:12;6.70;;;4.78;;
50789;SDS011;37287;47.554;7.844;2023-04-19T04:44:38;5.32;;;4.50;;
50789;SDS011;37287;47.554;7.844;2023-04-19T04:47:13;5.27;;;4.77;;
50789;SDS011;37287;47.554;7.844;2023-04-19T04:49:40;6.60;;;5.78;;
50789;SDS011;37287;47.554;7.844;2023-04-19T04:52:06;7.32;;;5.50;;
50789;SDS011;37287;47.554;7.844;2023-04-19T04:54:33;6.78;;;5.15;;
50789;SDS011;37287;47.554;7.844;2023-04-19T04:57:00;6.50;;;4.93;;
50789;SDS011;37287;47.554;7.844;2023-04-19T04:59:28;6.60;;;5.32;;
50789;SDS011;37287;47.554;7.844;2023-04-19T05:01:56;5.97;;;5.03;;
50789;SDS011;37287;47.554;7.844;2023-04-19T05:04:22;6.25;;;4.78;;
50789;SDS011;37287;47.554;7.844;2023-04-19T05:06:49;5.53;;;4.97;;
50789;SDS011;37287;47.554;7.844;2023-04-19T05:09:18;6.07;;;4.85;;
50789;SDS011;37287;47.554;7.844;2023-04-19T05:11:45;6.78;;;4.97;;
50789;SDS011;37287;47.554;7.844;2023-04-19T05:14:11;6.97;;;5.55;;
50789;SDS011;37287;47.554;7.844;2023-04-19T05:16:40;7.43;;;5.75;;
50789;SDS011;37287;47.554;7.844;2023-04-19T05:19:09;7.38;;;6.13;;
50789;SDS011;37287;47.554;7.844;2023-04-19T05:21:36;6.82;;;5.90;;
50789;SDS011;37287;47.554;7.844;2023-04-19T05:24:03;8.60;;;5.88;;
50789;SDS011;37287;47.554;7.844;2023-04-19T05:26:30;10.60;;;6.28;;
50789;SDS011;37287;47.554;7.844;2023-04-19T05:28:57;7.13;;;5.82;;
50789;SDS011;37287;47.554;7.844;2023-04-19T05:31:28;5.95;;;5.35;;
50789;SDS011;37287;47.554;7.844;2023-04-19T05:33:55;7.93;;;5.43;;
50789;SDS011;37287;47.554;7.844;2023-04-19T05:36:21;6.57;;;5.45;;
50789;SDS011;37287;47.554;7.844;2023-04-19T05:38:49;8.57;;;6.13;;
50789;SDS011;37287;47.554;7.844;2023-04-19T05:41:16;7.35;;;5.80;;
50789;SDS011;37287;47.554;7.844;2023-04-19T05:43:48;7.38;;;5.82;;
50789;SDS011;37287;47.554;7.844;2023-04-19T05:46:17;9.73;;;6.65;;
50789;SDS011;37287;47.554;7.844;2023-04-19T05:48:43;10.30;;;5.88;;
50789;SDS011;37287;47.554;7.844;2023-04-19T05:51:12;7.80;;;6.05;;
50789;SDS011;37287;47.554;7.844;2023-04-19T05:53:41;11.60;;;6.10;;
50789;SDS011;37287;47.554;7.844;2023-04-19T05:56:07;7.78;;;5.72;;
50789;SDS011;37287;47.554;7.844;2023-04-19T05:58:34;9.07;;;6.30;;
50789;SDS011;37287;47.554;7.844;2023-04-19T06:01:08;7.07;;;6.10;;
50789;SDS011;37287;47.554;7.844;2023-04-19T06:03:34;8.73;;;6.18;;
50789;SDS011;37287;47.554;7.844;2023-04-19T06:06:01;12.60;;;7.20;;
50789;SDS011;37287;47.554;7.844;2023-04-19T06:08:28;10.43;;;7.30;;
50789;SDS011;37287;47.554;7.844;2023-04-19T06:10:54;9.70;;;6.72;;
50789;SDS011;37287;47.554;7.844;2023-04-19T06:13:36;8.70;;;6.22;;
50789;SDS011;37287;47.554;7.844;2023-04-19T06:16:09;8.55;;;6.30;;
50789;SDS011;37287;47.554;7.844;2023-04-19T06:18:36;10.85;;;7.30;;
50789;SDS011;37287;47.554;7.844;2023-04-19T06:21:02;9.60;;;7.70;;
50789;SDS011;37287;47.554;7.844;2023-04-19T06:23:29;10.00;;;7.70;;
50789;SDS011;37287;47.554;7.844;2023-04-19T06:25:56;9.73;;;6.90;;
50789;SDS011;37287;47.554;7.844;2023-04-19T06:28:24;8.40;;;6.47;;
50789;SDS011;37287;47.554;7.844;2023-04-19T06:30:52;9.57;;;6.80;;
50789;SDS011;37287;47.554;7.844;2023-04-19T06:33:19;8.40;;;6.65;;
50789;SDS011;37287;47.554;7.844;2023-04-19T06:35:46;9.15;;;7.47;;
50789;SDS011;37287;47.554;7.844;2023-04-19T06:38:23;9.85;;;7.38;;
50789;SDS011;37287;47.554;7.844;2023-04-19T06:40:49;8.82;;;7.05;;
50789;SDS011;37287;47.554;7.844;2023-04-19T06:43:16;10.63;;;7.28;;
50789;SDS011;37287;47.554;7.844;2023-04-19T06:45:42;9.40;;;7.65;;
50789;SDS011;37287;47.554;7.844;2023-04-19T06:48:11;12.20;;;7.95;;
50789;SDS011;37287;47.554;7.844;2023-04-19T06:50:38;9.63;;;7.53;;
50789;SDS011;37287;47.554;7.844;2023-04-19T06:53:04;9.55;;;7.13;;
50789;SDS011;37287;47.554;7.844;2023-04-19T06:55:31;9.90;;;8.10;;
50789;SDS011;37287;47.554;7.844;2023-04-19T06:57:58;12.10;;;8.10;;
50789;SDS011;37287;47.554;7.844;2023-04-19T07:00:26;13.98;;;8.57;;
50789;SDS011;37287;47.554;7.844;2023-04-19T07:02:52;9.52;;;7.90;;
50789;SDS011;37287;47.554;7.844;2023-04-19T07:05:19;10.50;;;7.55;;
50789;SDS011;37287;47.554;7.844;2023-04-19T07:07:48;10.10;;;8.18;;
50789;SDS011;37287;47.554;7.844;2023-04-19T07:10:15;9.60;;;7.63;;
50789;SDS011;37287;47.554;7.844;2023-04-19T07:12:42;8.02;;;6.93;;
50789;SDS011;37287;47.554;7.844;2023-04-19T07:15:11;7.65;;;6.85;;
50789;SDS011;37287;47.554;7.844;2023-04-19T07:17:37;12.07;;;9.75;;
50789;SDS011;37287;47.554;7.844;2023-04-19T07:20:04;11.18;;;9.23;;
50789;SDS011;37287;47.554;7.844;2023-04-19T07:22:33;10.70;;;8.15;;
50789;SDS011;37287;47.554;7.844;2023-04-19T07:25:02;11.60;;;7.30;;
50789;SDS011;37287;47.554;7.844;2023-04-19T07:27:29;11.05;;;7.95;;
50789;SDS011;37287;47.554;7.844;2023-04-19T07:29:57;13.80;;;9.73;;
50789;SDS011;37287;47.554;7.844;2023-04-19T07:32:24;13.05;;;9.23;;
50789;SDS011;37287;47.554;7.844;2023-04-19T07:34:51;10.23;;;7.88;;
50789;SDS011;37287;47.554;7.844;2023-04-19T07:37:19;10.18;;;7.93;;
50789;SDS011;37287;47.554;7.844;2023-04-19T07:39:46;11.15;;;9.02;;
50789;SDS011;37287;47.554;7.844;2023-04-19T07:42:13;12.70;;;7.53;;
50789;SDS011;37287;47.554;7.844;2023-04-19T07:44:41;9.75;;;7.25;;
50789;SDS011;37287;47.554;7.844;2023-04-19T07:47:10;9.40;;;8.15;;
50789;SDS011;37287;47.554;7.844;2023-04-19T07:49:36;9.10;;;7.90;;
50789;SDS011;37287;47.554;7.844;2023-04-19T07:52:06;9.93;;;7.20;;
50789;SDS011;37287;47.554;7.844;2023-04-19T07:54:33;10.23;;;8.68;;
50789;SDS011;37287;47.554;7.844;2023-04-19T07:57:00;8.63;;;7.22;;
50789;SDS011;37287;47.554;7.844;2023-04-19T07:59:29;8.77;;;7.88;;
50789;SDS011;37287;47.554;7.844;2023-04-19T08:01:58;12.27;;;9.00;;
50789;SDS011;37287;47.554;7.844;2023-04-19T08:04:25;14.27;;;8.80;;
50789;SDS011;37287;47.554;7.844;2023-04-19T08:06:57;11.65;;;9.32;;
50789;SDS011;37287;47.554;7.844;2023-04-19T08:09:24;9.80;;;7.75;;
50789;SDS011;37287;47.554;7.844;2023-04-19T08:11:51;13.10;;;9.48;;
50789;SDS011;37287;47.554;7.844;2023-04-19T08:14:18;10.57;;;8.48;;
50789;SDS011;37287;47.554;7.844;2023-04-19T08:17:03;10.73;;;8.15;;
50789;SDS011;37287;47.554;7.844;2023-04-19T08:19:48;10.63;;;8.90;;
50789;SDS011;37287;47.554;7.844;2023-04-19T08:22:15;10.60;;;8.10;;
50789;SDS011;37287;47.554;7.844;2023-04-19T08:24:49;10.15;;;7.75;;
50789;SDS011;37287;47.554;7.844;2023-04-19T08:27:17;11.35;;;7.90;;
50789;SDS011;37287;47.554;7.844;2023-04-19T08:29:44;15.57;;;8.30;;
50789;SDS011;37287;47.554;7.844;2023-04-19T08:32:12;9.40;;;7.57;;
50789;SDS011;37287;47.554;7.844;2023-04-19T08:34:39;10.00;;;9.00;;
50789;SDS011;37287;47.554;7.844;2023-04-19T08:37:13;11.40;;;9.00;;
50789;SDS011;37287;47.554;7.844;2023-04-19T08:39:39;10.82;;;9.05;;
50789;SDS011;37287;47.554;7.844;2023-04-19T08:42:07;9.07;;;8.02;;
50789;SDS011;37287;47.554;7.844;2023-04-19T08:44:53;9.05;;;7.72;;
50789;SDS011;37287;47.554;7.844;2023-04-19T08:47:45;10.13;;;8.18;;
50789;SDS011;37287;47.554;7.844;2023-04-19T08:50:24;9.48;;;7.88;;
50789;SDS011;37287;47.554;7.844;2023-04-19T08:53:03;12.02;;;7.97;;
50789;SDS011;37287;47.554;7.844;2023-04-19T08:55:39;7.93;;;7.13;;
50789;SDS011;37287;47.554;7.844;2023-04-19T08:58:29;11.07;;;8.48;;
50789;SDS011;37287;47.554;7.844;2023-04-19T09:01:18;11.60;;;9.32;;
50789;SDS011;37287;47.554;7.844;2023-04-19T09:04:00;8.68;;;7.10;;
50789;SDS011;37287;47.554;7.844;2023-04-19T09:06:47;10.30;;;7.55;;
50789;SDS011;37287;47.554;7.844;2023-04-19T09:09:17;10.05;;;7.05;;
50789;SDS011;37287;47.554;7.844;2023-04-19T09:11:46;13.70;;;8.48;;
50789;SDS011;37287;47.554;7.844;2023-04-19T09:14:14;9.30;;;7.50;;
50789;SDS011;37287;47.554;7.844;2023-04-19T09:16:42;10.75;;;7.38;;
50789;SDS011;37287;47.554;7.844;2023-04-19T09:19:09;12.10;;;8.13;;
50789;SDS011;37287;47.554;7.844;2023-04-19T09:21:49;10.65;;;6.85;;
50789;SDS011;37287;47.554;7.844;2023-04-19T09:24:37;12.15;;;6.63;;
50789;SDS011;37287;47.554;7.844;2023-04-19T09:27:28;8.43;;;6.78;;
50789;SDS011;37287;47.554;7.844;2023-04-19T09:29:59;7.35;;;6.50;;
50789;SDS011;37287;47.554;7.844;2023-04-19T09:32:27;10.40;;;7.35;;
50789;SDS011;37287;47.554;7.844;2023-04-19T09:35:14;14.95;;;6.22;;
50789;SDS011;37287;47.554;7.844;2023-04-19T09:37:41;7.38;;;6.13;;
50789;SDS011;37287;47.554;7.844;2023-04-19T09:40:21;11.38;;;7.32;;
50789;SDS011;37287;47.554;7.844;2023-04-19T09:42:50;9.23;;;6.15;;
50789;SDS011;37287;47.554;7.844;2023-04-19T09:45:20;7.13;;;5.90;;
50789;SDS011;37287;47.554;7.844;2023-04-19T09:48:00;6.55;;;5.47;;
50789;SDS011;37287;47.554;7.844;2023-04-19T09:50:33;6.57;;;5.78;;
50789;SDS011;37287;47.554;7.844;2023-04-19T09:53:19;7.22;;;5.97;;
50789;SDS011;37287;47.554;7.844;2023-04-19T09:55:47;7.50;;;5.47;;
50789;SDS011;37287;47.554;7.844;2023-04-19T09:58:26;8.40;;;5.18;;
50789;SDS011;37287;47.554;7.844;2023-04-19T10:01:16;7.10;;;5.03;;
50789;SDS011;37287;47.554;7.844;2023-04-19T10:03:45;5.78;;;5.18;;
50789;SDS011;37287;47.554;7.844;2023-04-19T10:06:21;6.85;;;5.28;;
50789;SDS011;37287;47.554;7.844;2023-04-19T10:08:51;5.15;;;4.65;;
50789;SDS011;37287;47.554;7.844;2023-04-19T10:11:21;6.65;;;4.53;;
50789;SDS011;37287;47.554;7.844;2023-04-19T10:13:52;4.38;;;3.90;;
50789;SDS011;37287;47.554;7.844;2023-04-19T10:16:22;4.40;;;4.00;;
50789;SDS011;37287;47.554;7.844;2023-04-19T10:18:50;4.63;;;4.20;;
50789;SDS011;37287;47.554;7.844;2023-04-19T10:21:25;4.80;;;4.32;;
50789;SDS011;37287;47.554;7.844;2023-04-19T10:23:56;5.28;;;4.13;;
50789;SDS011;37287;47.554;7.844;2023-04-19T10:26:24;4.30;;;3.90;;
50789;SDS011;37287;47.554;7.844;2023-04-19T10:28:51;4.32;;;3.92;;
50789;SDS011;37287;47.554;7.844;2023-04-19T10:31:20;4.13;;;3.72;;
50789;SDS011;37287;47.554;7.844;2023-04-19T10:33:49;4.63;;;4.22;;
50789;SDS011;37287;47.554;7.844;2023-04-19T10:36:19;4.50;;;4.10;;
50789;SDS011;37287;47.554;7.844;2023-04-19T10:38:49;4.82;;;4.03;;
50789;SDS011;37287;47.554;7.844;2023-04-19T10:41:17;4.85;;;4.22;;
50789;SDS011;37287;47.554;7.844;2023-04-19T10:44:07;4.68;;;4.03;;
50789;SDS011;37287;47.554;7.844;2023-04-19T10:46:36;3.90;;;3.50;;
50789;SDS011;37287;47.554;7.844;2023-04-19T10:49:09;4.10;;;3.70;;
50789;SDS011;37287;47.554;7.844;2023-04-19T10:51:38;5.88;;;3.28;;
50789;SDS011;37287;47.554;7.844;2023-04-19T10:54:32;4.43;;;3.70;;
50789;SDS011;37287;47.554;7.844;2023-04-19T10:57:09;3.70;;;3.40;;
50789;SDS011;37287;47.554;7.844;2023-04-19T10:59:37;3.35;;;3.05;;
50789;SDS011;37287;47.554;7.844;2023-04-19T11:07:14;4.03;;;2.80;;
50789;SDS011;37287;47.554;7.844;2023-04-19T11:09:45;3.67;;;3.38;;
50789;SDS011;37287;47.554;7.844;2023-04-19T11:12:16;3.67;;;3.15;;
50789;SDS011;37287;47.554;7.844;2023-04-19T11:14:53;3.60;;;3.28;;
50789;SDS011;37287;47.554;7.844;2023-04-19T11:17:26;3.85;;;3.08;;
50789;SDS011;37287;47.554;7.844;2023-04-19T11:19:58;4.18;;;3.22;;
50789;SDS011;37287;47.554;7.844;2023-04-19T11:22:29;3.33;;;3.03;;
50789;SDS011;37287;47.554;7.844;2023-04-19T11:25:05;3.20;;;2.90;;
50789;SDS011;37287;47.554;7.844;2023-04-19T11:27:45;3.30;;;3.00;;
50789;SDS011;37287;47.554;7.844;2023-04-19T11:30:17;3.88;;;3.22;;
50789;SDS011;37287;47.554;7.844;2023-04-19T11:32:47;4.15;;;3.28;;
50789;SDS011;37287;47.554;7.844;2023-04-19T11:35:18;3.20;;;2.90;;
50789;SDS011;37287;47.554;7.844;2023-04-19T11:37:51;3.38;;;3.08;;
50789;SDS011;37287;47.554;7.844;2023-04-19T11:40:22;3.50;;;3.20;;
50789;SDS011;37287;47.554;7.844;2023-04-19T11:42:52;4.30;;;3.20;;
50789;SDS011;37287;47.554;7.844;2023-04-19T11:45:26;3.03;;;2.67;;
50789;SDS011;37287;47.554;7.844;2023-04-19T11:47:59;6.07;;;2.80;;
50789;SDS011;37287;47.554;7.844;2023-04-19T11:50:39;3.45;;;3.00;;
50789;SDS011;37287;47.554;7.844;2023-04-19T11:53:13;3.25;;;2.95;;
50789;SDS011;37287;47.554;7.844;2023-04-19T11:55:48;3.35;;;2.90;;
50789;SDS011;37287;47.554;7.844;2023-04-19T11:58:26;4.38;;;2.90;;
50789;SDS011;37287;47.554;7.844;2023-04-19T12:01:20;3.55;;;2.92;;
50789;SDS011;37287;47.554;7.844;2023-04-19T12:03:48;3.40;;;3.10;;
50789;SDS011;37287;47.554;7.844;2023-04-19T12:06:24;3.28;;;2.97;;
50789;SDS011;37287;47.554;7.844;2023-04-19T12:08:53;3.00;;;2.60;;
50789;SDS011;37287;47.554;7.844;2023-04-19T12:11:22;2.97;;;2.67;;
50789;SDS011;37287;47.554;7.844;2023-04-19T12:14:07;3.97;;;2.70;;
50789;SDS011;37287;47.554;7.844;2023-04-19T12:16:34;2.70;;;2.50;;
50789;SDS011;37287;47.554;7.844;2023-04-19T12:19:10;2.75;;;2.50;;
50789;SDS011;37287;47.554;7.844;2023-04-19T12:21:41;2.70;;;2.50;;
50789;SDS011;37287;47.554;7.844;2023-04-19T12:24:07;2.55;;;2.35;;
50789;SDS011;37287;47.554;7.844;2023-04-19T12:26:34;3.08;;;2.80;;
50789;SDS011;37287;47.554;7.844;2023-04-19T12:29:02;3.03;;;2.72;;
50789;SDS011;37287;47.554;7.844;2023-04-19T12:31:31;3.08;;;2.78;;
50789;SDS011;37287;47.554;7.844;2023-04-19T12:33:58;3.20;;;2.88;;
50789;SDS011;37287;47.554;7.844;2023-04-19T12:36:27;3.30;;;3.00;;
50789;SDS011;37287;47.554;7.844;2023-04-19T12:38:56;3.03;;;2.70;;
50789;SDS011;37287;47.554;7.844;2023-04-19T12:41:23;2.90;;;2.60;;
50789;SDS011;37287;47.554;7.844;2023-04-19T12:43:51;2.67;;;2.47;;
50789;SDS011;37287;47.554;7.844;2023-04-19T12:46:17;2.65;;;2.45;;
50789;SDS011;37287;47.554;7.844;2023-04-19T12:48:46;2.78;;;2.53;;
50789;SDS011;37287;47.554;7.844;2023-04-19T12:51:13;2.85;;;2.25;;
50789;SDS011;37287;47.554;7.844;2023-04-19T12:53:46;3.47;;;2.65;;
50789;SDS011;37287;47.554;7.844;2023-04-19T12:56:17;3.13;;;2.83;;
50789;SDS011;37287;47.554;7.844;2023-04-19T12:58:44;2.90;;;2.58;;
50789;SDS011;37287;47.554;7.844;2023-04-19T13:01:11;3.53;;;2.83;;
50789;SDS011;37287;47.554;7.844;2023-04-19T13:03:40;2.78;;;2.47;;
50789;SDS011;37287;47.554;7.844;2023-04-19T13:06:07;3.00;;;2.70;;
50789;SDS011;37287;47.554;7.844;2023-04-19T13:08:34;3.40;;;2.55;;
50789;SDS011;37287;47.554;7.844;2023-04-19T13:11:11;2.53;;;2.28;;
50789;SDS011;37287;47.554;7.844;2023-04-19T13:13:43;2.60;;;2.40;;
50789;SDS011;37287;47.554;7.844;2023-04-19T13:16:09;2.85;;;2.58;;
50789;SDS011;37287;47.554;7.844;2023-04-19T13:18:36;2.97;;;2.78;;
50789;SDS011;37287;47.554;7.844;2023-04-19T13:21:04;2.55;;;2.35;;
50789;SDS011;37287;47.554;7.844;2023-04-19T13:23:34;2.90;;;2.60;;
50789;SDS011;37287;47.554;7.844;2023-04-19T13:26:00;2.95;;;2.50;;
50789;SDS011;37287;47.554;7.844;2023-04-19T13:28:27;3.13;;;2.30;;
50789;SDS011;37287;47.554;7.844;2023-04-19T13:30:53;2.60;;;2.40;;
50789;SDS011;37287;47.554;7.844;2023-04-19T13:33:22;2.78;;;2.58;;
50789;SDS011;37287;47.554;7.844;2023-04-19T13:35:48;2.53;;;2.33;;
50789;SDS011;37287;47.554;7.844;2023-04-19T13:38:15;3.67;;;2.53;;
50789;SDS011;37287;47.554;7.844;2023-04-19T13:40:43;3.20;;;2.75;;
50789;SDS011;37287;47.554;7.844;2023-04-19T13:43:09;2.55;;;2.35;;
50789;SDS011;37287;47.554;7.844;2023-04-19T13:45:36;3.00;;;2.80;;
50789;SDS011;37287;47.554;7.844;2023-04-19T13:48:03;2.88;;;2.33;;
50789;SDS011;37287;47.554;7.844;2023-04-19T13:50:30;2.85;;;2.65;;
50789;SDS011;37287;47.554;7.844;2023-04-19T13:52:58;3.38;;;3.00;;
50789;SDS011;37287;47.554;7.844;2023-04-19T13:55:25;2.95;;;2.75;;
50789;SDS011;37287;47.554;7.844;2023-04-19T13:57:52;3.65;;;2.80;;
50789;SDS011;37287;47.554;7.844;2023-04-19T14:00:20;2.70;;;2.50;;
50789;SDS011;37287;47.554;7.844;2023-04-19T14:02:47;2.90;;;2.60;;
50789;SDS011;37287;47.554;7.844;2023-04-19T14:05:17;5.78;;;2.97;;
50789;SDS011;37287;47.554;7.844;2023-04-19T14:07:45;3.08;;;2.78;;
50789;SDS011;37287;47.554;7.844;2023-04-19T14:10:12;3.10;;;2.80;;
50789;SDS011;37287;47.554;7.844;2023-04-19T14:12:39;3.78;;;2.47;;
50789;SDS011;37287;47.554;7.844;2023-04-19T14:15:17;3.00;;;2.58;;
50789;SDS011;37287;47.554;7.844;2023-04-19T14:17:45;5.18;;;2.80;;
50789;SDS011;37287;47.554;7.844;2023-04-19T14:20:12;2.50;;;2.30;;
50789;SDS011;37287;47.554;7.844;2023-04-19T14:22:39;3.10;;;2.80;;
50789;SDS011;37287;47.554;7.844;2023-04-19T14:25:08;2.97;;;2.72;;
50789;SDS011;37287;47.554;7.844;2023-04-19T14:27:35;2.80;;;2.60;;
50789;SDS011;37287;47.554;7.844;2023-04-19T14:30:05;2.75;;;2.55;;
50789;SDS011;37287;47.554;7.844;2023-04-19T14:32:34;2.88;;;2.67;;
50789;SDS011;37287;47.554;7.844;2023-04-19T14:35:01;2.78;;;2.30;;
50789;SDS011;37287;47.554;7.844;2023-04-19T14:37:28;3.80;;;2.53;;
50789;SDS011;37287;47.554;7.844;2023-04-19T14:39:55;2.40;;;2.20;;
50789;SDS011;37287;47.554;7.844;2023-04-19T14:42:22;2.90;;;2.35;;
50789;SDS011;37287;47.554;7.844;2023-04-19T14:44:50;2.67;;;2.45;;
50789;SDS011;37287;47.554;7.844;2023-04-19T14:47:17;2.63;;;2.42;;
50789;SDS011;37287;47.554;7.844;2023-04-19T14:49:44;3.35;;;2.75;;
50789;SDS011;37287;47.554;7.844;2023-04-19T14:52:10;3.38;;;2.65;;
50789;SDS011;37287;47.554;7.844;2023-04-19T14:54:37;2.92;;;2.30;;
50789;SDS011;37287;47.554;7.844;2023-04-19T14:57:03;2.38;;;2.08;;
50789;SDS011;37287;47.554;7.844;2023-04-19T14:59:30;2.78;;;2.40;;
50789;SDS011;37287;47.554;7.844;2023-04-19T15:01:57;2.65;;;2.45;;
50789;SDS011;37287;47.554;7.844;2023-04-19T15:04:23;2.90;;;2.67;;